createdAt,value
2023-04-14T00:00:37.119Z,99.90
2023-04-14T00:03:04.268Z,99.90
2023-04-14T00:05:31.928Z,99.90
2023-04-14T00:07:58.746Z,99.90
2023-04-14T00:10:26.663Z,99.90
2023-04-14T00:12:55.348Z,99.90
2023-04-14T00:15:22.413Z,99.90
2023-04-14T00:17:49.195Z,99.90
2023-04-14T00:20:16.490Z,99.90
2023-04-14T00:22:43.151Z,99.90
2023-04-14T00:25:09.968Z,99.90
2023-04-14T00:27:36.814Z,99.90
2023-04-14T00:30:03.909Z,99.90
2023-04-14T00:32:30.639Z,99.90
2023-04-14T00:34:57.468Z,99.90
2023-04-14T00:37:24.400Z,99.90
2023-04-14T00:39:51.093Z,99.90
2023-04-14T00:42:17.871Z,99.90
2023-04-14T00:44:44.651Z,99.90
2023-04-14T00:47:11.448Z,99.90
2023-04-14T00:49:38.458Z,99.90
2023-04-14T00:52:06.032Z,99.90
2023-04-14T00:54:34.593Z,99.90
2023-04-14T00:57:02.759Z,99.90
2023-04-14T00:59:29.908Z,99.90
2023-04-14T01:01:57.312Z,99.90
2023-04-14T01:04:33.670Z,99.90
2023-04-14T01:07:03.869Z,99.90
2023-04-14T01:09:31.406Z,99.90
2023-04-14T01:12:49.124Z,99.90
2023-04-14T01:15:38.673Z,99.90
2023-04-14T01:18:29.139Z,99.90
2023-04-14T01:21:03.224Z,99.90
2023-04-14T01:23:39.022Z,99.90
2023-04-14T01:26:20.789Z,99.90
2023-04-14T01:29:02.929Z,99.90
2023-04-14T01:32:05.651Z,99.90
2023-04-14T01:34:50.128Z,99.90
2023-04-14T01:37:18.408Z,99.90
2023-04-14T01:39:52.479Z,99.90
2023-04-14T01:42:26.834Z,99.90
2023-04-14T01:44:58.680Z,99.90
2023-04-14T01:47:26.714Z,99.90
2023-04-14T01:49:55.690Z,99.90
2023-04-14T01:52:23.137Z,99.90
2023-04-14T01:54:53.812Z,99.90
2023-04-14T01:57:23.132Z,99.90
2023-04-14T01:59:54.165Z,99.90
2023-04-14T02:02:24.409Z,99.90
2023-04-14T02:04:52.188Z,99.90
2023-04-14T02:07:21.942Z,99.90
2023-04-14T02:09:49.880Z,99.90
2023-04-14T02:12:20.174Z,99.90
2023-04-14T02:14:47.637Z,99.90
2023-04-14T02:17:16.060Z,99.90
2023-04-14T02:19:43.942Z,99.90
2023-04-14T02:22:10.821Z,99.90
2023-04-14T02:24:37.596Z,99.90
2023-04-14T02:27:22.582Z,99.90
2023-04-14T02:29:54.793Z,99.90
2023-04-14T02:32:29.083Z,99.90
2023-04-14T02:35:06.456Z,99.90
2023-04-14T02:37:40.802Z,99.90
2023-04-14T02:40:18.176Z,99.90
2023-04-14T02:42:48.189Z,99.90
2023-04-14T02:45:22.193Z,99.90
2023-04-14T02:47:54.562Z,99.90
2023-04-14T02:50:22.722Z,99.90
2023-04-14T02:52:51.852Z,99.90
2023-04-14T02:55:23.087Z,99.90
2023-04-14T02:57:51.537Z,99.90
2023-04-14T03:00:18.946Z,99.90
2023-04-14T03:02:47.403Z,99.90
2023-04-14T03:05:14.875Z,99.90
2023-04-14T03:07:44.081Z,99.90
2023-04-14T03:10:14.397Z,99.90
2023-04-14T03:12:42.165Z,99.90
2023-04-14T03:15:10.533Z,99.90
2023-04-14T03:17:38.123Z,99.90
2023-04-14T03:20:05.708Z,99.90
2023-04-14T03:22:36.216Z,99.90
2023-04-14T03:25:02.916Z,99.90
2023-04-14T03:27:31.703Z,99.90
2023-04-14T03:30:07.794Z,99.90
2023-04-14T03:32:41.769Z,99.90
2023-04-14T03:35:10.120Z,99.90
2023-04-14T03:37:39.688Z,99.90
2023-04-14T03:40:11.133Z,99.90
2023-04-14T03:42:40.641Z,99.90
2023-04-14T03:45:08.260Z,99.90
2023-04-14T03:47:35.398Z,99.90
2023-04-14T03:50:04.805Z,99.90
2023-04-14T03:52:36.994Z,99.90
2023-04-14T03:55:06.787Z,99.90
2023-04-14T03:57:36.129Z,99.90
2023-04-14T04:00:05.271Z,99.90
2023-04-14T04:02:33.051Z,99.90
2023-04-14T04:05:01.102Z,99.90
2023-04-14T04:07:30.715Z,99.90
2023-04-14T04:09:57.855Z,99.90
2023-04-14T04:12:26.011Z,99.90
2023-04-14T04:14:52.746Z,99.90
2023-04-14T04:17:24.447Z,99.90
2023-04-14T04:19:53.659Z,99.90
2023-04-14T04:22:21.944Z,99.90
2023-04-14T04:24:50.563Z,99.90
2023-04-14T04:27:27.689Z,99.90
2023-04-14T04:29:55.687Z,99.90
2023-04-14T04:32:23.568Z,99.90
2023-04-14T04:34:51.217Z,99.90
2023-04-14T04:37:19.362Z,99.90
2023-04-14T04:39:47.992Z,99.90
2023-04-14T04:42:14.708Z,99.90
2023-04-14T04:44:41.747Z,99.90
2023-04-14T04:47:09.309Z,99.90
2023-04-14T04:49:35.980Z,99.90
2023-04-14T04:52:02.698Z,99.90
2023-04-14T04:54:29.641Z,99.90
2023-04-14T04:56:57.619Z,99.90
2023-04-14T04:59:24.947Z,99.90
2023-04-14T05:01:51.974Z,99.90
2023-04-14T05:04:18.852Z,99.90
2023-04-14T05:06:45.715Z,99.90
2023-04-14T05:09:12.456Z,99.90
2023-04-14T05:11:39.231Z,99.90
2023-04-14T05:14:06.369Z,99.90
2023-04-14T05:16:33.658Z,99.90
2023-04-14T05:19:00.743Z,99.90
2023-04-14T05:21:27.707Z,99.90
2023-04-14T05:23:54.490Z,99.90
2023-04-14T05:26:44.597Z,99.90
2023-04-14T05:29:09.359Z,99.90
2023-04-14T05:31:36.353Z,99.90
2023-04-14T05:34:03.373Z,99.90
2023-04-14T05:36:31.176Z,99.90
2023-04-14T05:38:58.004Z,99.90
2023-04-14T05:41:24.668Z,99.90
2023-04-14T05:43:51.373Z,99.90
2023-04-14T05:46:18.127Z,99.90
2023-04-14T05:48:45.005Z,99.90
2023-04-14T05:51:12.008Z,99.90
2023-04-14T05:53:38.744Z,99.90
2023-04-14T05:56:05.723Z,99.90
2023-04-14T05:58:32.560Z,99.90
2023-04-14T06:00:59.254Z,99.90
2023-04-14T06:03:26.125Z,99.90
2023-04-14T06:05:53.269Z,99.90
2023-04-14T06:08:20.716Z,99.90
2023-04-14T06:10:47.482Z,99.90
2023-04-14T06:13:15.204Z,99.90
2023-04-14T06:15:41.917Z,99.90
2023-04-14T06:18:08.716Z,99.90
2023-04-14T06:20:36.366Z,99.90
2023-04-14T06:23:03.756Z,99.90
2023-04-14T06:25:30.936Z,99.90
2023-04-14T06:27:57.701Z,99.90
2023-04-14T06:30:25.637Z,99.90
2023-04-14T06:32:54.328Z,99.90
2023-04-14T06:35:32.508Z,99.90
2023-04-14T06:38:00.373Z,99.90
2023-04-14T06:40:27.290Z,99.90
2023-04-14T06:42:53.974Z,99.90
2023-04-14T06:45:20.692Z,99.90
2023-04-14T06:47:47.554Z,99.90
2023-04-14T06:50:14.555Z,99.90
2023-04-14T06:52:41.361Z,99.90
2023-04-14T06:55:08.484Z,99.90
2023-04-14T06:57:35.597Z,99.90
2023-04-14T07:00:04.198Z,99.90
2023-04-14T07:02:31.148Z,99.90
2023-04-14T07:04:58.113Z,99.90
2023-04-14T07:07:24.907Z,99.90
2023-04-14T07:09:51.933Z,99.90
2023-04-14T07:12:19.024Z,99.90
2023-04-14T07:14:52.002Z,97.50
2023-04-14T07:17:22.049Z,94.70
2023-04-14T07:19:48.845Z,94.70
2023-04-14T07:22:15.706Z,92.50
2023-04-14T07:24:42.617Z,92.40
2023-04-14T07:27:15.247Z,92.70
2023-04-14T07:29:42.821Z,91.10
2023-04-14T07:32:09.788Z,90.50
2023-04-14T07:34:37.111Z,88.60
2023-04-14T07:37:04.083Z,85.50
2023-04-14T07:39:30.784Z,84.10
2023-04-14T07:41:58.739Z,77.20
2023-04-14T07:44:26.414Z,77.10
2023-04-14T07:46:53.238Z,77.80
2023-04-14T07:49:19.940Z,76.20
2023-04-14T07:51:46.680Z,75.50
2023-04-14T07:54:13.428Z,76.70
2023-04-14T07:56:40.245Z,75.40
2023-04-14T07:59:06.919Z,77.90
2023-04-14T08:01:33.822Z,76.40
2023-04-14T08:04:12.525Z,75.40
2023-04-14T08:06:40.098Z,73.20
2023-04-14T08:09:06.929Z,73.40
2023-04-14T08:11:34.712Z,72.50
2023-04-14T08:14:01.472Z,72.80
2023-04-14T08:16:29.138Z,71.80
2023-04-14T08:18:57.881Z,70.20
2023-04-14T08:21:24.991Z,72.80
2023-04-14T08:23:52.536Z,70.00
2023-04-14T08:26:19.259Z,71.00
2023-04-14T08:28:47.061Z,67.90
2023-04-14T08:31:13.787Z,69.70
2023-04-14T08:33:40.522Z,68.10
2023-04-14T08:36:07.688Z,68.80
2023-04-14T08:38:34.357Z,68.40
2023-04-14T08:41:03.853Z,67.60
2023-04-14T08:43:30.597Z,66.60
2023-04-14T08:45:59.379Z,66.80
2023-04-14T08:48:30.626Z,68.00
2023-04-14T08:51:07.728Z,67.30
2023-04-14T08:53:37.265Z,68.00
2023-04-14T08:56:05.148Z,70.70
2023-04-14T08:58:32.391Z,68.70
2023-04-14T09:00:59.984Z,68.40
2023-04-14T09:03:27.466Z,68.40
2023-04-14T09:05:54.722Z,68.00
2023-04-14T09:08:21.665Z,66.80
2023-04-14T09:10:48.851Z,66.40
2023-04-14T09:13:17.306Z,67.10
2023-04-14T09:15:44.035Z,66.20
2023-04-14T09:18:12.124Z,67.40
2023-04-14T09:20:40.783Z,66.80
2023-04-14T09:23:12.265Z,63.80
2023-04-14T09:25:40.213Z,65.30
2023-04-14T09:28:07.701Z,64.90
2023-04-14T09:30:34.755Z,63.40
2023-04-14T09:33:06.241Z,63.60
2023-04-14T09:35:51.651Z,62.60
2023-04-14T09:38:39.155Z,64.00
2023-04-14T09:41:07.240Z,62.90
2023-04-14T09:43:34.579Z,62.20
2023-04-14T09:46:06.992Z,62.70
2023-04-14T09:48:34.918Z,61.40
2023-04-14T09:51:11.547Z,61.40
2023-04-14T09:53:42.692Z,62.30
2023-04-14T09:56:11.490Z,58.90
2023-04-14T09:58:40.159Z,59.10
2023-04-14T10:01:19.942Z,56.50
2023-04-14T10:03:50.724Z,54.20
2023-04-14T10:06:24.701Z,55.80
2023-04-14T10:08:53.618Z,53.20
2023-04-14T10:11:29.591Z,50.60
2023-04-14T10:14:02.815Z,50.90
2023-04-14T10:16:30.561Z,51.40
2023-04-14T10:19:00.573Z,53.00
2023-04-14T10:21:27.975Z,52.80
2023-04-14T10:23:57.355Z,53.50
2023-04-14T10:26:24.050Z,52.70
2023-04-14T10:28:53.003Z,52.40
2023-04-14T10:31:24.518Z,51.70
2023-04-14T10:33:51.288Z,53.00
2023-04-14T10:36:29.282Z,53.60
2023-04-14T10:39:02.048Z,52.20
2023-04-14T10:41:56.708Z,52.90
2023-04-14T10:44:29.192Z,54.40
2023-04-14T10:47:02.382Z,54.00
2023-04-14T10:49:38.424Z,55.00
2023-04-14T10:52:15.097Z,55.10
2023-04-14T10:55:01.484Z,54.40
2023-04-14T10:57:38.655Z,55.60
2023-04-14T11:00:24.344Z,55.80
2023-04-14T11:03:08.273Z,55.40
2023-04-14T11:05:36.061Z,54.90
2023-04-14T11:08:17.257Z,54.70
2023-04-14T11:10:51.414Z,54.20
2023-04-14T11:13:18.262Z,54.30
2023-04-14T11:15:57.401Z,53.50
2023-04-14T11:18:30.197Z,52.10
2023-04-14T11:21:04.403Z,54.00
2023-04-14T11:23:31.302Z,52.70
2023-04-14T11:25:58.597Z,54.30
2023-04-14T11:28:33.787Z,53.10
2023-04-14T11:31:02.327Z,54.30
2023-04-14T11:33:30.754Z,53.40
2023-04-14T11:35:58.351Z,53.70
2023-04-14T11:38:27.414Z,56.40
2023-04-14T11:40:54.550Z,55.00
2023-04-14T11:43:22.912Z,58.10
2023-04-14T11:45:50.968Z,56.00
2023-04-14T11:48:19.882Z,56.20
2023-04-14T11:50:48.610Z,57.80
2023-04-14T11:53:17.537Z,57.50
2023-04-14T11:55:54.645Z,57.50
2023-04-14T11:58:24.478Z,59.30
2023-04-14T12:00:53.613Z,59.00
2023-04-14T12:03:30.488Z,58.50
2023-04-14T12:06:01.792Z,58.60
2023-04-14T12:08:32.763Z,60.10
2023-04-14T12:11:13.234Z,58.00
2023-04-14T12:13:41.808Z,59.30
2023-04-14T12:16:08.903Z,58.20
2023-04-14T12:18:36.037Z,61.40
2023-04-14T12:21:06.329Z,62.50
2023-04-14T12:23:41.198Z,62.70
2023-04-14T12:26:12.160Z,64.50
2023-04-14T12:28:41.354Z,64.70
2023-04-14T12:31:09.162Z,65.50
2023-04-14T12:33:36.088Z,65.40
2023-04-14T12:36:12.893Z,66.90
2023-04-14T12:38:39.826Z,64.20
2023-04-14T12:41:06.616Z,65.80
2023-04-14T12:43:36.519Z,67.10
2023-04-14T12:46:05.571Z,67.10
2023-04-14T12:48:46.889Z,68.00
2023-04-14T12:51:16.050Z,67.50
2023-04-14T12:53:44.438Z,67.10
2023-04-14T12:56:22.672Z,68.50
2023-04-14T12:58:51.080Z,69.50
2023-04-14T13:01:19.908Z,69.50
2023-04-14T13:03:50.680Z,68.80
2023-04-14T13:06:19.551Z,69.70
2023-04-14T13:08:50.496Z,69.70
2023-04-14T13:11:18.634Z,69.60
2023-04-14T13:13:45.802Z,69.70
2023-04-14T13:16:16.937Z,70.00
2023-04-14T13:18:45.666Z,69.20
2023-04-14T13:21:12.538Z,70.20
2023-04-14T13:23:40.045Z,67.90
2023-04-14T13:26:07.190Z,69.00
2023-04-14T13:28:33.950Z,68.60
2023-04-14T13:31:01.034Z,68.20
2023-04-14T13:33:27.949Z,69.50
2023-04-14T13:35:56.399Z,68.90
2023-04-14T13:38:23.116Z,69.40
2023-04-14T13:40:49.911Z,70.10
2023-04-14T13:43:25.061Z,70.20
2023-04-14T13:45:57.970Z,71.40
2023-04-14T13:48:34.591Z,71.30
2023-04-14T13:51:02.354Z,73.10
2023-04-14T13:53:31.222Z,72.90
2023-04-14T13:56:01.939Z,70.90
2023-04-14T13:58:34.236Z,70.40
2023-04-14T14:01:18.755Z,71.80
2023-04-14T14:03:45.921Z,72.10
2023-04-14T14:06:12.872Z,71.70
2023-04-14T14:08:41.960Z,70.70
2023-04-14T14:11:11.827Z,72.70
2023-04-14T14:13:39.051Z,73.40
2023-04-14T14:16:07.279Z,74.30
2023-04-14T14:18:38.588Z,75.30
2023-04-14T14:21:05.741Z,76.50
2023-04-14T14:23:32.457Z,76.00
2023-04-14T14:25:59.385Z,76.80
2023-04-14T14:28:26.045Z,75.30
2023-04-14T14:30:52.766Z,74.70
2023-04-14T14:33:19.841Z,75.00
2023-04-14T14:35:46.608Z,76.10
2023-04-14T14:38:13.542Z,77.30
2023-04-14T14:40:40.416Z,78.70
2023-04-14T14:43:07.289Z,77.90
2023-04-14T14:45:34.079Z,79.50
2023-04-14T14:48:01.435Z,77.80
2023-04-14T14:50:28.168Z,77.90
2023-04-14T14:52:56.817Z,79.50
2023-04-14T14:55:23.680Z,80.10
2023-04-14T14:57:51.236Z,78.90
2023-04-14T15:00:18.489Z,79.30
2023-04-14T15:02:45.419Z,78.60
2023-04-14T15:05:12.661Z,78.70
2023-04-14T15:07:39.727Z,79.40
2023-04-14T15:10:07.231Z,81.20
2023-04-14T15:12:33.992Z,80.10
2023-04-14T15:15:00.766Z,81.80
2023-04-14T15:17:27.484Z,82.00
2023-04-14T15:19:54.255Z,81.90
2023-04-14T15:22:21.238Z,82.10
2023-04-14T15:24:47.939Z,83.30
2023-04-14T15:27:14.632Z,84.30
2023-04-14T15:29:41.321Z,86.10
2023-04-14T15:32:08.185Z,86.30
2023-04-14T15:34:34.962Z,88.00
2023-04-14T15:37:01.691Z,87.50
2023-04-14T15:39:28.770Z,88.60
2023-04-14T15:41:55.908Z,90.30
2023-04-14T15:44:22.780Z,90.20
2023-04-14T15:46:50.513Z,90.20
2023-04-14T15:49:17.397Z,90.80
2023-04-14T15:51:44.147Z,91.60
2023-04-14T15:54:13.429Z,91.50
2023-04-14T15:56:40.125Z,92.10
2023-04-14T15:59:07.250Z,91.50
2023-04-14T16:01:33.997Z,92.60
2023-04-14T16:04:01.094Z,94.20
2023-04-14T16:06:28.567Z,94.90
2023-04-14T16:08:55.356Z,96.80
2023-04-14T16:11:23.917Z,98.40
2023-04-14T16:13:50.820Z,99.90
2023-04-14T16:16:17.840Z,99.90
2023-04-14T16:18:44.654Z,99.90
2023-04-14T16:21:11.730Z,99.90
2023-04-14T16:23:38.490Z,99.90
2023-04-14T16:26:05.578Z,99.90
2023-04-14T16:28:32.455Z,99.90
2023-04-14T16:31:02.949Z,99.90
2023-04-14T16:33:31.575Z,99.90
2023-04-14T16:36:06.533Z,99.90
2023-04-14T16:38:33.677Z,99.90
2023-04-14T16:41:02.159Z,99.90
2023-04-14T16:43:29.016Z,99.90
2023-04-14T16:46:03.296Z,99.90
2023-04-14T16:48:31.304Z,99.90
2023-04-14T16:51:04.444Z,99.90
2023-04-14T16:53:31.421Z,99.90
2023-04-14T16:56:05.635Z,99.90
2023-04-14T16:58:35.209Z,99.90
2023-04-14T17:01:02.299Z,99.90
2023-04-14T17:03:29.245Z,99.90
2023-04-14T17:05:56.442Z,99.90
2023-04-14T17:08:23.510Z,99.90
2023-04-14T17:10:50.643Z,99.90
2023-04-14T17:13:21.328Z,99.90
2023-04-14T17:18:21.881Z,99.90
2023-04-14T17:20:50.835Z,99.90
2023-04-14T17:23:20.477Z,99.90
2023-04-14T17:25:48.524Z,99.90
2023-04-14T17:28:15.688Z,99.90
2023-04-14T17:30:42.382Z,99.90
2023-04-14T17:33:09.332Z,99.90
2023-04-14T17:35:36.673Z,99.90
2023-04-14T17:38:06.575Z,99.90
2023-04-14T17:40:33.462Z,99.90
2023-04-14T17:43:00.305Z,99.90
2023-04-14T17:45:27.688Z,99.90
2023-04-14T17:47:54.780Z,99.90
2023-04-14T17:50:22.364Z,99.90
2023-04-14T17:52:51.090Z,99.90
2023-04-14T17:55:18.025Z,99.90
2023-04-14T17:57:47.976Z,99.90
2023-04-14T18:00:15.006Z,99.90
2023-04-14T18:02:42.213Z,99.90
2023-04-14T18:05:10.908Z,99.90
2023-04-14T18:07:38.039Z,99.90
2023-04-14T18:10:06.300Z,99.90
2023-04-14T18:12:33.423Z,99.90
2023-04-14T18:15:00.211Z,99.90
2023-04-14T18:17:27.399Z,99.90
2023-04-14T18:19:56.584Z,99.90
2023-04-14T18:22:24.331Z,99.90
2023-04-14T18:24:51.329Z,99.90
2023-04-14T18:29:48.128Z,99.90
2023-04-14T18:32:15.414Z,99.90
2023-04-14T18:34:42.213Z,99.90
2023-04-14T18:37:09.554Z,99.90
2023-04-14T18:39:37.408Z,99.90
2023-04-14T18:42:05.252Z,99.90
2023-04-14T18:44:32.577Z,99.90
2023-04-14T18:46:59.608Z,99.90
2023-04-14T18:49:26.389Z,99.90
2023-04-14T18:51:53.589Z,99.90
2023-04-14T18:54:21.900Z,99.90
2023-04-14T18:56:49.063Z,99.90
2023-04-14T18:59:15.899Z,99.90
2023-04-14T19:01:42.655Z,99.90
2023-04-14T19:04:09.448Z,99.90
2023-04-14T19:06:37.204Z,99.90
2023-04-14T19:09:04.626Z,99.90
2023-04-14T19:11:36.087Z,99.90
2023-04-14T19:14:06.030Z,99.90
2023-04-14T19:16:33.571Z,99.90
2023-04-14T19:19:00.870Z,99.90
2023-04-14T19:21:27.935Z,99.90
2023-04-14T19:23:56.952Z,99.90
2023-04-14T19:26:27.569Z,99.90
2023-04-14T19:28:57.510Z,99.90
2023-04-14T19:31:28.111Z,99.90
2023-04-14T19:33:55.083Z,99.90
2023-04-14T19:36:21.937Z,99.90
2023-04-14T19:38:49.014Z,99.90
2023-04-14T19:41:15.806Z,99.90
2023-04-14T19:43:42.545Z,99.90
2023-04-14T19:46:12.639Z,99.90
2023-04-14T19:48:39.711Z,99.90
2023-04-14T19:51:06.405Z,99.90
2023-04-14T19:53:33.235Z,99.90
2023-04-14T19:56:00.244Z,99.90
2023-04-14T19:58:28.458Z,99.90
2023-04-14T20:00:58.747Z,99.90
2023-04-14T20:03:26.006Z,99.90
2023-04-14T20:05:57.125Z,99.90
2023-04-14T20:08:25.279Z,99.90
2023-04-14T20:10:53.247Z,99.90
2023-04-14T20:13:22.617Z,99.90
2023-04-14T20:15:50.793Z,99.90
2023-04-14T20:18:18.313Z,99.90
2023-04-14T20:20:48.832Z,99.90
2023-04-14T20:23:15.869Z,99.90
2023-04-14T20:25:43.987Z,99.90
2023-04-14T20:28:10.872Z,99.90
2023-04-14T20:30:37.800Z,99.90
2023-04-14T20:33:05.624Z,99.90
2023-04-14T20:35:37.290Z,99.90
2023-04-14T20:38:04.960Z,99.90
2023-04-14T20:40:32.601Z,99.90
2023-04-14T20:42:59.965Z,99.90
2023-04-14T20:45:26.713Z,99.90
2023-04-14T20:47:53.505Z,99.90
2023-04-14T20:50:20.276Z,99.90
2023-04-14T20:52:47.102Z,99.90
2023-04-14T20:55:14.013Z,99.90
2023-04-14T20:57:44.981Z,99.90
2023-04-14T21:00:15.481Z,99.90
2023-04-14T21:02:43.473Z,99.90
2023-04-14T21:05:10.962Z,99.90
2023-04-14T21:07:42.099Z,99.90
2023-04-14T21:10:10.456Z,99.90
2023-04-14T21:13:47.771Z,99.90
2023-04-14T21:15:50.192Z,99.90
2023-04-14T21:18:12.021Z,99.90
2023-04-14T21:20:38.764Z,99.90
2023-04-14T21:23:05.771Z,99.90
2023-04-14T21:25:34.414Z,99.90
2023-04-14T21:28:02.286Z,99.90
2023-04-14T21:30:28.958Z,99.90
2023-04-14T21:32:55.714Z,99.90
2023-04-14T21:35:22.452Z,99.90
2023-04-14T21:37:49.129Z,99.90
2023-04-14T21:40:15.812Z,99.90
2023-04-14T21:42:42.512Z,99.90
2023-04-14T21:45:09.561Z,99.90
2023-04-14T21:47:36.577Z,99.90
2023-04-14T21:50:03.500Z,99.90
2023-04-14T21:52:30.493Z,99.90
2023-04-14T21:54:57.377Z,99.90
2023-04-14T21:57:43.882Z,99.90
2023-04-14T22:00:16.114Z,99.90
2023-04-14T22:02:44.265Z,99.90
2023-04-14T22:05:11.166Z,99.90
2023-04-14T22:07:39.617Z,99.90
2023-04-14T22:10:07.059Z,99.90
2023-04-14T22:12:39.629Z,99.90
2023-04-14T22:15:08.758Z,99.90
2023-04-14T22:17:37.453Z,99.90
2023-04-14T22:20:08.124Z,99.90
2023-04-14T22:22:34.936Z,99.90
2023-04-14T22:25:03.640Z,99.90
2023-04-14T22:27:31.527Z,99.90
2023-04-14T22:29:58.194Z,99.90
2023-04-14T22:32:24.938Z,99.90
2023-04-14T22:34:52.029Z,99.90
2023-04-14T22:37:18.683Z,99.90
2023-04-14T22:39:45.799Z,99.90
2023-04-14T22:42:13.101Z,99.90
2023-04-14T22:44:39.757Z,99.90
2023-04-14T22:47:06.714Z,99.90
2023-04-14T22:49:33.364Z,99.90
2023-04-14T22:52:00.123Z,99.90
2023-04-14T22:54:27.493Z,99.90
2023-04-14T22:56:54.188Z,99.90
2023-04-14T22:59:20.949Z,99.90
2023-04-14T23:01:48.456Z,99.90
2023-04-14T23:04:15.433Z,99.90
2023-04-14T23:06:42.590Z,99.90
2023-04-14T23:09:10.553Z,99.90
2023-04-14T23:11:37.643Z,99.90
2023-04-14T23:14:04.948Z,99.90
2023-04-14T23:16:32.436Z,99.90
2023-04-14T23:18:59.399Z,99.90
2023-04-14T23:21:28.724Z,99.90
2023-04-14T23:23:55.963Z,99.90
2023-04-14T23:26:23.871Z,99.90
2023-04-14T23:28:53.034Z,99.90
2023-04-14T23:31:22.308Z,99.90
2023-04-14T23:33:58.382Z,99.90
2023-04-14T23:36:25.477Z,99.90
2023-04-14T23:38:52.976Z,99.90
2023-04-14T23:41:19.686Z,99.90
2023-04-14T23:43:49.362Z,99.90
2023-04-14T23:46:16.258Z,99.90
2023-04-14T23:48:43.089Z,99.90
2023-04-14T23:51:16.167Z,99.90
2023-04-14T23:53:44.922Z,99.90
2023-04-14T23:56:13.019Z,99.90
2023-04-14T23:58:39.722Z,99.90
